Etusivu
METAR-TAF:

METAR-TAF

Lentoasemat :

Los Alamos, New Mexico, Yhdysvallat

Leveyspiiri: 35-53N, Pituuspiiri: 106-17W, korkeus merenpinnasta: 2179 m

Tämänhetkinen sää

Tämä raportti tehtiin 26 minuuttia sitten, kello 15.55 UTC
Tuuli 3 kn eri suunnista
Lämpötila 22°C
Kosteus 41%
Ilmanpaine 1027 hPa
Näkyvyys: 11.3 km
selkeää

METAR: KLAM 121555Z AUTO VRB03KT 7SM CLR 22/08 A3033 RMK AO2 T02190084 $

Aika: 10:21 (16:21 UTC)


TAF: puuttuu

Säähavainnot ja -ennusteet yli 4000 lentoasemalta (METAR- ja TAF-raportit).

Käytössä olevat sääasemat on merkitty karttaan keltaisilla ja punaisilla pisteillä.

Aseta hiiri pisteen päälle nähdäksesi sääaseman nimen.

Klikkaa sitten nähdäksesi säähavainnot ja -ennusteet.

Kartan vaihtaminen: klikkaa mustalla rastilla varustettuja vihreitä pisteitä, niin voit zoomata sisään; viivalla varustettua vihreää pistettä, niin voit zoomata ulos tai vihreitä nuolia, niin pääset viereisille kartoille.


METAR-TAF: